sensor_id;sensor_type;location;lat;lon;timestamp;P1;durP1;ratioP1;P2;durP2;ratioP2
27163;SDS011;14685;50.618;7.024;2023-04-06T00:01:08;13.55;;;9.43;;
27163;SDS011;14685;50.618;7.024;2023-04-06T00:03:37;14.30;;;9.02;;
27163;SDS011;14685;50.618;7.024;2023-04-06T00:06:04;13.15;;;9.10;;
27163;SDS011;14685;50.618;7.024;2023-04-06T00:08:33;15.20;;;10.27;;
27163;SDS011;14685;50.618;7.024;2023-04-06T00:11:00;15.32;;;9.90;;
27163;SDS011;14685;50.618;7.024;2023-04-06T00:13:27;15.73;;;9.65;;
27163;SDS011;14685;50.618;7.024;2023-04-06T00:15:54;17.23;;;9.75;;
27163;SDS011;14685;50.618;7.024;2023-04-06T00:18:22;13.77;;;9.77;;
27163;SDS011;14685;50.618;7.024;2023-04-06T00:20:48;15.32;;;9.10;;
27163;SDS011;14685;50.618;7.024;2023-04-06T00:23:17;14.93;;;9.52;;
27163;SDS011;14685;50.618;7.024;2023-04-06T00:25:45;15.65;;;9.23;;
27163;SDS011;14685;50.618;7.024;2023-04-06T00:28:12;14.68;;;9.73;;
27163;SDS011;14685;50.618;7.024;2023-04-06T00:30:40;15.07;;;9.45;;
27163;SDS011;14685;50.618;7.024;2023-04-06T00:33:07;14.77;;;9.73;;
27163;SDS011;14685;50.618;7.024;2023-04-06T00:35:34;12.88;;;9.18;;
27163;SDS011;14685;50.618;7.024;2023-04-06T00:38:01;17.92;;;8.85;;
27163;SDS011;14685;50.618;7.024;2023-04-06T00:40:29;13.80;;;9.23;;
27163;SDS011;14685;50.618;7.024;2023-04-06T00:42:57;13.45;;;9.40;;
27163;SDS011;14685;50.618;7.024;2023-04-06T00:45:24;12.40;;;8.60;;
27163;SDS011;14685;50.618;7.024;2023-04-06T00:47:51;13.38;;;9.05;;
27163;SDS011;14685;50.618;7.024;2023-04-06T00:50:18;13.55;;;9.02;;
27163;SDS011;14685;50.618;7.024;2023-04-06T00:52:45;14.38;;;8.63;;
27163;SDS011;14685;50.618;7.024;2023-04-06T00:55:12;15.27;;;9.30;;
27163;SDS011;14685;50.618;7.024;2023-04-06T00:57:40;11.68;;;8.85;;
27163;SDS011;14685;50.618;7.024;2023-04-06T01:00:07;14.68;;;9.07;;
27163;SDS011;14685;50.618;7.024;2023-04-06T01:02:34;16.05;;;9.40;;
27163;SDS011;14685;50.618;7.024;2023-04-06T01:05:03;13.40;;;7.75;;
27163;SDS011;14685;50.618;7.024;2023-04-06T01:07:31;14.60;;;9.20;;
27163;SDS011;14685;50.618;7.024;2023-04-06T01:09:57;13.40;;;9.25;;
27163;SDS011;14685;50.618;7.024;2023-04-06T01:12:24;16.27;;;9.18;;
27163;SDS011;14685;50.618;7.024;2023-04-06T01:14:54;13.98;;;8.73;;
27163;SDS011;14685;50.618;7.024;2023-04-06T01:17:21;12.48;;;8.90;;
27163;SDS011;14685;50.618;7.024;2023-04-06T01:19:48;12.90;;;8.50;;
27163;SDS011;14685;50.618;7.024;2023-04-06T01:22:18;14.82;;;8.77;;
27163;SDS011;14685;50.618;7.024;2023-04-06T01:24:45;16.50;;;8.27;;
27163;SDS011;14685;50.618;7.024;2023-04-06T01:27:12;14.20;;;9.25;;
27163;SDS011;14685;50.618;7.024;2023-04-06T01:29:39;15.55;;;8.30;;
27163;SDS011;14685;50.618;7.024;2023-04-06T01:32:07;12.60;;;9.15;;
27163;SDS011;14685;50.618;7.024;2023-04-06T01:34:34;11.90;;;8.20;;
27163;SDS011;14685;50.618;7.024;2023-04-06T01:37:02;15.73;;;9.50;;
27163;SDS011;14685;50.618;7.024;2023-04-06T01:39:29;13.43;;;8.45;;
27163;SDS011;14685;50.618;7.024;2023-04-06T01:41:56;13.65;;;8.95;;
27163;SDS011;14685;50.618;7.024;2023-04-06T01:44:25;13.85;;;8.48;;
27163;SDS011;14685;50.618;7.024;2023-04-06T01:46:53;12.65;;;8.30;;
27163;SDS011;14685;50.618;7.024;2023-04-06T01:49:20;14.93;;;9.23;;
27163;SDS011;14685;50.618;7.024;2023-04-06T01:51:47;11.80;;;8.50;;
27163;SDS011;14685;50.618;7.024;2023-04-06T01:54:14;13.93;;;8.80;;
27163;SDS011;14685;50.618;7.024;2023-04-06T01:56:41;13.30;;;8.57;;
27163;SDS011;14685;50.618;7.024;2023-04-06T01:59:08;17.52;;;8.43;;
27163;SDS011;14685;50.618;7.024;2023-04-06T02:01:36;14.63;;;8.65;;
27163;SDS011;14685;50.618;7.024;2023-04-06T02:04:03;15.68;;;9.05;;
27163;SDS011;14685;50.618;7.024;2023-04-06T02:06:30;10.80;;;8.57;;
27163;SDS011;14685;50.618;7.024;2023-04-06T02:08:58;12.55;;;8.52;;
27163;SDS011;14685;50.618;7.024;2023-04-06T02:11:26;13.55;;;7.95;;
27163;SDS011;14685;50.618;7.024;2023-04-06T02:13:54;11.18;;;7.57;;
27163;SDS011;14685;50.618;7.024;2023-04-06T02:16:21;12.55;;;8.57;;
27163;SDS011;14685;50.618;7.024;2023-04-06T02:18:49;12.18;;;7.95;;
27163;SDS011;14685;50.618;7.024;2023-04-06T02:21:17;13.13;;;8.43;;
27163;SDS011;14685;50.618;7.024;2023-04-06T02:23:46;12.80;;;7.93;;
27163;SDS011;14685;50.618;7.024;2023-04-06T02:26:14;15.60;;;9.15;;
27163;SDS011;14685;50.618;7.024;2023-04-06T02:28:42;12.88;;;8.57;;
27163;SDS011;14685;50.618;7.024;2023-04-06T02:31:09;13.02;;;8.23;;
27163;SDS011;14685;50.618;7.024;2023-04-06T02:33:37;14.60;;;8.38;;
27163;SDS011;14685;50.618;7.024;2023-04-06T02:36:04;13.77;;;8.73;;
27163;SDS011;14685;50.618;7.024;2023-04-06T02:38:31;12.30;;;8.75;;
27163;SDS011;14685;50.618;7.024;2023-04-06T02:40:58;12.70;;;8.05;;
27163;SDS011;14685;50.618;7.024;2023-04-06T02:43:25;12.55;;;8.00;;
27163;SDS011;14685;50.618;7.024;2023-04-06T02:45:52;13.40;;;8.43;;
27163;SDS011;14685;50.618;7.024;2023-04-06T02:48:19;16.00;;;11.27;;
27163;SDS011;14685;50.618;7.024;2023-04-06T02:50:46;15.82;;;11.57;;
27163;SDS011;14685;50.618;7.024;2023-04-06T02:53:13;16.38;;;10.27;;
27163;SDS011;14685;50.618;7.024;2023-04-06T02:55:40;14.35;;;9.63;;
27163;SDS011;14685;50.618;7.024;2023-04-06T02:58:06;12.10;;;8.68;;
27163;SDS011;14685;50.618;7.024;2023-04-06T03:00:33;15.73;;;9.20;;
27163;SDS011;14685;50.618;7.024;2023-04-06T03:03:00;16.42;;;9.13;;
27163;SDS011;14685;50.618;7.024;2023-04-06T03:05:27;12.50;;;8.50;;
27163;SDS011;14685;50.618;7.024;2023-04-06T03:07:54;12.30;;;8.18;;
27163;SDS011;14685;50.618;7.024;2023-04-06T03:10:21;11.13;;;8.57;;
27163;SDS011;14685;50.618;7.024;2023-04-06T03:12:48;15.30;;;8.30;;
27163;SDS011;14685;50.618;7.024;2023-04-06T03:15:15;13.98;;;8.63;;
27163;SDS011;14685;50.618;7.024;2023-04-06T03:17:42;14.23;;;8.10;;
27163;SDS011;14685;50.618;7.024;2023-04-06T03:20:09;11.52;;;8.23;;
27163;SDS011;14685;50.618;7.024;2023-04-06T03:22:36;12.57;;;7.68;;
27163;SDS011;14685;50.618;7.024;2023-04-06T03:25:04;12.40;;;7.90;;
27163;SDS011;14685;50.618;7.024;2023-04-06T03:27:32;14.65;;;8.52;;
27163;SDS011;14685;50.618;7.024;2023-04-06T03:29:59;11.82;;;7.63;;
27163;SDS011;14685;50.618;7.024;2023-04-06T03:32:26;12.73;;;7.68;;
27163;SDS011;14685;50.618;7.024;2023-04-06T03:34:53;11.73;;;7.90;;
27163;SDS011;14685;50.618;7.024;2023-04-06T03:37:20;15.05;;;8.52;;
27163;SDS011;14685;50.618;7.024;2023-04-06T03:39:47;12.07;;;7.60;;
27163;SDS011;14685;50.618;7.024;2023-04-06T03:42:14;13.65;;;7.93;;
27163;SDS011;14685;50.618;7.024;2023-04-06T03:44:41;13.55;;;8.35;;
27163;SDS011;14685;50.618;7.024;2023-04-06T03:47:08;12.68;;;8.32;;
27163;SDS011;14685;50.618;7.024;2023-04-06T03:49:35;13.82;;;8.75;;
27163;SDS011;14685;50.618;7.024;2023-04-06T03:52:06;10.82;;;7.90;;
27163;SDS011;14685;50.618;7.024;2023-04-06T03:54:32;11.88;;;7.43;;
27163;SDS011;14685;50.618;7.024;2023-04-06T03:56:59;13.68;;;7.80;;
27163;SDS011;14685;50.618;7.024;2023-04-06T03:59:26;15.43;;;7.68;;
27163;SDS011;14685;50.618;7.024;2023-04-06T04:01:54;14.90;;;8.45;;
27163;SDS011;14685;50.618;7.024;2023-04-06T04:04:21;11.95;;;8.40;;
27163;SDS011;14685;50.618;7.024;2023-04-06T04:06:48;13.23;;;8.13;;
27163;SDS011;14685;50.618;7.024;2023-04-06T04:09:15;13.50;;;8.60;;
27163;SDS011;14685;50.618;7.024;2023-04-06T04:11:43;12.73;;;8.45;;
27163;SDS011;14685;50.618;7.024;2023-04-06T04:14:10;13.30;;;8.55;;
27163;SDS011;14685;50.618;7.024;2023-04-06T04:16:37;14.35;;;8.85;;
27163;SDS011;14685;50.618;7.024;2023-04-06T04:19:05;15.32;;;9.05;;
27163;SDS011;14685;50.618;7.024;2023-04-06T04:21:33;13.20;;;8.88;;
27163;SDS011;14685;50.618;7.024;2023-04-06T04:24:08;15.88;;;8.70;;
27163;SDS011;14685;50.618;7.024;2023-04-06T04:26:35;14.80;;;8.77;;
27163;SDS011;14685;50.618;7.024;2023-04-06T04:29:02;13.05;;;8.95;;
27163;SDS011;14685;50.618;7.024;2023-04-06T04:31:30;14.43;;;8.68;;
27163;SDS011;14685;50.618;7.024;2023-04-06T04:33:59;15.38;;;8.52;;
27163;SDS011;14685;50.618;7.024;2023-04-06T04:36:26;12.32;;;8.43;;
27163;SDS011;14685;50.618;7.024;2023-04-06T04:38:53;12.30;;;8.63;;
27163;SDS011;14685;50.618;7.024;2023-04-06T04:41:22;12.80;;;9.02;;
27163;SDS011;14685;50.618;7.024;2023-04-06T04:43:49;12.20;;;8.27;;
27163;SDS011;14685;50.618;7.024;2023-04-06T04:46:16;15.57;;;8.10;;
27163;SDS011;14685;50.618;7.024;2023-04-06T04:48:43;16.42;;;8.23;;
27163;SDS011;14685;50.618;7.024;2023-04-06T04:51:09;14.57;;;8.35;;
27163;SDS011;14685;50.618;7.024;2023-04-06T04:53:38;15.57;;;9.15;;
27163;SDS011;14685;50.618;7.024;2023-04-06T04:56:06;14.00;;;9.25;;
27163;SDS011;14685;50.618;7.024;2023-04-06T04:58:34;16.35;;;8.32;;
27163;SDS011;14685;50.618;7.024;2023-04-06T05:01:02;13.70;;;9.10;;
27163;SDS011;14685;50.618;7.024;2023-04-06T05:03:29;14.85;;;8.95;;
27163;SDS011;14685;50.618;7.024;2023-04-06T05:05:59;14.23;;;8.95;;
27163;SDS011;14685;50.618;7.024;2023-04-06T05:08:26;17.13;;;9.18;;
27163;SDS011;14685;50.618;7.024;2023-04-06T05:10:54;13.88;;;9.35;;
27163;SDS011;14685;50.618;7.024;2023-04-06T05:13:21;18.00;;;9.23;;
27163;SDS011;14685;50.618;7.024;2023-04-06T05:15:49;14.68;;;9.15;;
27163;SDS011;14685;50.618;7.024;2023-04-06T05:18:16;17.30;;;9.48;;
27163;SDS011;14685;50.618;7.024;2023-04-06T05:20:43;13.05;;;8.85;;
27163;SDS011;14685;50.618;7.024;2023-04-06T05:23:10;13.23;;;8.55;;
27163;SDS011;14685;50.618;7.024;2023-04-06T05:25:40;15.13;;;10.25;;
27163;SDS011;14685;50.618;7.024;2023-04-06T05:28:07;13.50;;;8.52;;
27163;SDS011;14685;50.618;7.024;2023-04-06T05:30:34;17.95;;;9.13;;
27163;SDS011;14685;50.618;7.024;2023-04-06T05:33:02;11.52;;;8.35;;
27163;SDS011;14685;50.618;7.024;2023-04-06T05:35:29;17.42;;;9.95;;
27163;SDS011;14685;50.618;7.024;2023-04-06T05:37:56;17.55;;;9.57;;
27163;SDS011;14685;50.618;7.024;2023-04-06T05:40:22;15.18;;;8.82;;
27163;SDS011;14685;50.618;7.024;2023-04-06T05:42:49;13.13;;;8.50;;
27163;SDS011;14685;50.618;7.024;2023-04-06T05:45:17;16.27;;;8.98;;
27163;SDS011;14685;50.618;7.024;2023-04-06T05:47:49;12.80;;;9.02;;
27163;SDS011;14685;50.618;7.024;2023-04-06T05:50:25;14.70;;;8.63;;
27163;SDS011;14685;50.618;7.024;2023-04-06T05:52:52;14.13;;;9.70;;
27163;SDS011;14685;50.618;7.024;2023-04-06T05:55:19;14.70;;;8.65;;
27163;SDS011;14685;50.618;7.024;2023-04-06T05:57:46;17.73;;;9.00;;
27163;SDS011;14685;50.618;7.024;2023-04-06T06:00:14;16.27;;;8.80;;
27163;SDS011;14685;50.618;7.024;2023-04-06T06:02:41;21.55;;;9.43;;
27163;SDS011;14685;50.618;7.024;2023-04-06T06:05:08;14.35;;;9.15;;
27163;SDS011;14685;50.618;7.024;2023-04-06T06:07:37;14.13;;;8.95;;
27163;SDS011;14685;50.618;7.024;2023-04-06T06:10:04;13.05;;;9.63;;
27163;SDS011;14685;50.618;7.024;2023-04-06T06:12:31;14.27;;;9.32;;
27163;SDS011;14685;50.618;7.024;2023-04-06T06:14:58;15.05;;;9.55;;
27163;SDS011;14685;50.618;7.024;2023-04-06T06:17:25;12.32;;;8.45;;
27163;SDS011;14685;50.618;7.024;2023-04-06T06:19:52;12.32;;;8.52;;
27163;SDS011;14685;50.618;7.024;2023-04-06T06:22:19;14.20;;;8.90;;
27163;SDS011;14685;50.618;7.024;2023-04-06T06:24:46;16.65;;;9.07;;
27163;SDS011;14685;50.618;7.024;2023-04-06T06:27:13;16.30;;;9.32;;
27163;SDS011;14685;50.618;7.024;2023-04-06T06:29:40;14.50;;;9.02;;
27163;SDS011;14685;50.618;7.024;2023-04-06T06:32:07;13.77;;;8.82;;
27163;SDS011;14685;50.618;7.024;2023-04-06T06:34:35;15.35;;;9.95;;
27163;SDS011;14685;50.618;7.024;2023-04-06T06:37:02;15.63;;;9.30;;
27163;SDS011;14685;50.618;7.024;2023-04-06T06:39:30;15.13;;;9.35;;
27163;SDS011;14685;50.618;7.024;2023-04-06T06:41:57;14.68;;;9.52;;
27163;SDS011;14685;50.618;7.024;2023-04-06T06:44:27;15.25;;;9.20;;
27163;SDS011;14685;50.618;7.024;2023-04-06T06:46:54;13.60;;;8.68;;
27163;SDS011;14685;50.618;7.024;2023-04-06T06:49:21;13.70;;;9.18;;
27163;SDS011;14685;50.618;7.024;2023-04-06T06:51:49;19.08;;;10.15;;
27163;SDS011;14685;50.618;7.024;2023-04-06T06:54:16;16.35;;;10.02;;
27163;SDS011;14685;50.618;7.024;2023-04-06T06:56:43;17.88;;;10.45;;
27163;SDS011;14685;50.618;7.024;2023-04-06T06:59:10;16.75;;;10.02;;
27163;SDS011;14685;50.618;7.024;2023-04-06T07:01:37;12.93;;;9.85;;
27163;SDS011;14685;50.618;7.024;2023-04-06T07:04:05;16.52;;;10.02;;
27163;SDS011;14685;50.618;7.024;2023-04-06T07:06:36;15.30;;;10.63;;
27163;SDS011;14685;50.618;7.024;2023-04-06T07:09:03;15.77;;;9.82;;
27163;SDS011;14685;50.618;7.024;2023-04-06T07:11:30;15.68;;;10.30;;
27163;SDS011;14685;50.618;7.024;2023-04-06T07:13:57;17.20;;;9.63;;
27163;SDS011;14685;50.618;7.024;2023-04-06T07:16:25;15.13;;;9.15;;
27163;SDS011;14685;50.618;7.024;2023-04-06T07:18:53;15.48;;;10.20;;
27163;SDS011;14685;50.618;7.024;2023-04-06T07:21:20;15.85;;;10.25;;
27163;SDS011;14685;50.618;7.024;2023-04-06T07:23:48;19.85;;;11.27;;
27163;SDS011;14685;50.618;7.024;2023-04-06T07:26:17;18.27;;;10.13;;
27163;SDS011;14685;50.618;7.024;2023-04-06T07:28:44;19.10;;;10.95;;
27163;SDS011;14685;50.618;7.024;2023-04-06T07:31:10;18.55;;;10.60;;
27163;SDS011;14685;50.618;7.024;2023-04-06T07:33:37;16.42;;;9.63;;
27163;SDS011;14685;50.618;7.024;2023-04-06T07:36:04;16.63;;;10.23;;
27163;SDS011;14685;50.618;7.024;2023-04-06T07:38:31;18.08;;;10.63;;
27163;SDS011;14685;50.618;7.024;2023-04-06T07:40:58;18.80;;;11.10;;
27163;SDS011;14685;50.618;7.024;2023-04-06T07:43:26;21.88;;;10.98;;
27163;SDS011;14685;50.618;7.024;2023-04-06T07:45:53;15.75;;;11.10;;
27163;SDS011;14685;50.618;7.024;2023-04-06T07:48:23;17.25;;;10.50;;
27163;SDS011;14685;50.618;7.024;2023-04-06T07:50:50;14.90;;;10.10;;
27163;SDS011;14685;50.618;7.024;2023-04-06T07:53:17;15.50;;;10.00;;
27163;SDS011;14685;50.618;7.024;2023-04-06T07:55:44;17.20;;;10.00;;
27163;SDS011;14685;50.618;7.024;2023-04-06T07:58:11;20.20;;;10.90;;
27163;SDS011;14685;50.618;7.024;2023-04-06T08:03:35;20.08;;;10.85;;
27163;SDS011;14685;50.618;7.024;2023-04-06T08:06:03;19.23;;;10.30;;
27163;SDS011;14685;50.618;7.024;2023-04-06T08:08:31;18.80;;;10.77;;
27163;SDS011;14685;50.618;7.024;2023-04-06T08:10:58;17.38;;;10.60;;
27163;SDS011;14685;50.618;7.024;2023-04-06T08:13:27;17.58;;;10.68;;
27163;SDS011;14685;50.618;7.024;2023-04-06T08:15:54;25.73;;;11.40;;
27163;SDS011;14685;50.618;7.024;2023-04-06T08:18:21;21.15;;;10.93;;
27163;SDS011;14685;50.618;7.024;2023-04-06T08:20:49;21.15;;;10.98;;
27163;SDS011;14685;50.618;7.024;2023-04-06T08:23:16;17.20;;;10.38;;
27163;SDS011;14685;50.618;7.024;2023-04-06T08:25:43;19.27;;;10.38;;
27163;SDS011;14685;50.618;7.024;2023-04-06T08:28:11;18.45;;;10.63;;
27163;SDS011;14685;50.618;7.024;2023-04-06T08:30:42;18.20;;;11.18;;
27163;SDS011;14685;50.618;7.024;2023-04-06T08:33:09;18.17;;;10.57;;
27163;SDS011;14685;50.618;7.024;2023-04-06T08:35:36;19.35;;;11.10;;
27163;SDS011;14685;50.618;7.024;2023-04-06T08:38:06;18.42;;;10.35;;
27163;SDS011;14685;50.618;7.024;2023-04-06T08:40:39;18.98;;;11.07;;
27163;SDS011;14685;50.618;7.024;2023-04-06T08:43:09;12.10;;;7.87;;
27163;SDS011;14685;50.618;7.024;2023-04-06T08:45:40;20.63;;;10.95;;
27163;SDS011;14685;50.618;7.024;2023-04-06T08:48:08;21.60;;;12.13;;
27163;SDS011;14685;50.618;7.024;2023-04-06T08:50:38;18.33;;;11.23;;
27163;SDS011;14685;50.618;7.024;2023-04-06T08:53:07;18.40;;;11.13;;
27163;SDS011;14685;50.618;7.024;2023-04-06T08:55:34;21.98;;;11.52;;
27163;SDS011;14685;50.618;7.024;2023-04-06T08:58:02;23.92;;;12.10;;
27163;SDS011;14685;50.618;7.024;2023-04-06T09:00:32;18.65;;;10.50;;
27163;SDS011;14685;50.618;7.024;2023-04-06T09:03:04;18.02;;;10.80;;
27163;SDS011;14685;50.618;7.024;2023-04-06T09:05:33;22.50;;;11.45;;
27163;SDS011;14685;50.618;7.024;2023-04-06T09:08:01;20.98;;;10.82;;
27163;SDS011;14685;50.618;7.024;2023-04-06T09:10:28;17.48;;;10.90;;
27163;SDS011;14685;50.618;7.024;2023-04-06T09:13:02;19.52;;;11.43;;
27163;SDS011;14685;50.618;7.024;2023-04-06T09:15:30;22.02;;;12.25;;
27163;SDS011;14685;50.618;7.024;2023-04-06T09:17:57;21.63;;;11.57;;
27163;SDS011;14685;50.618;7.024;2023-04-06T09:20:26;21.65;;;11.82;;
27163;SDS011;14685;50.618;7.024;2023-04-06T09:22:54;20.23;;;11.30;;
27163;SDS011;14685;50.618;7.024;2023-04-06T09:25:24;21.02;;;11.30;;
27163;SDS011;14685;50.618;7.024;2023-04-06T09:27:59;21.00;;;10.93;;
27163;SDS011;14685;50.618;7.024;2023-04-06T09:30:30;18.50;;;10.60;;
27163;SDS011;14685;50.618;7.024;2023-04-06T09:32:57;20.35;;;10.50;;
27163;SDS011;14685;50.618;7.024;2023-04-06T09:35:28;18.73;;;10.32;;
27163;SDS011;14685;50.618;7.024;2023-04-06T09:37:57;21.17;;;10.88;;
27163;SDS011;14685;50.618;7.024;2023-04-06T09:40:24;18.90;;;10.43;;
27163;SDS011;14685;50.618;7.024;2023-04-06T09:42:53;19.35;;;11.05;;
27163;SDS011;14685;50.618;7.024;2023-04-06T09:45:23;21.48;;;11.25;;
27163;SDS011;14685;50.618;7.024;2023-04-06T09:47:52;16.90;;;9.95;;
27163;SDS011;14685;50.618;7.024;2023-04-06T09:50:22;17.05;;;10.18;;
27163;SDS011;14685;50.618;7.024;2023-04-06T09:52:51;20.65;;;11.40;;
27163;SDS011;14685;50.618;7.024;2023-04-06T09:55:23;20.13;;;10.18;;
27163;SDS011;14685;50.618;7.024;2023-04-06T09:58:07;15.85;;;9.32;;
27163;SDS011;14685;50.618;7.024;2023-04-06T10:01:02;19.38;;;10.35;;
27163;SDS011;14685;50.618;7.024;2023-04-06T10:06:34;22.08;;;10.52;;
27163;SDS011;14685;50.618;7.024;2023-04-06T10:09:04;20.00;;;10.82;;
27163;SDS011;14685;50.618;7.024;2023-04-06T10:11:34;22.00;;;11.82;;
27163;SDS011;14685;50.618;7.024;2023-04-06T10:14:02;21.88;;;11.35;;
27163;SDS011;14685;50.618;7.024;2023-04-06T10:16:29;22.30;;;11.50;;
27163;SDS011;14685;50.618;7.024;2023-04-06T10:18:58;19.00;;;10.73;;
27163;SDS011;14685;50.618;7.024;2023-04-06T10:21:36;19.05;;;10.98;;
27163;SDS011;14685;50.618;7.024;2023-04-06T10:24:07;20.23;;;10.85;;
27163;SDS011;14685;50.618;7.024;2023-04-06T10:29:06;20.70;;;11.63;;
27163;SDS011;14685;50.618;7.024;2023-04-06T10:31:39;20.33;;;11.30;;
27163;SDS011;14685;50.618;7.024;2023-04-06T10:34:10;18.67;;;11.38;;
27163;SDS011;14685;50.618;7.024;2023-04-06T10:36:37;21.75;;;11.65;;
27163;SDS011;14685;50.618;7.024;2023-04-06T10:39:05;19.35;;;11.38;;
27163;SDS011;14685;50.618;7.024;2023-04-06T10:41:36;17.92;;;10.27;;
27163;SDS011;14685;50.618;7.024;2023-04-06T10:44:17;19.58;;;10.88;;
27163;SDS011;14685;50.618;7.024;2023-04-06T10:46:53;18.27;;;11.07;;
27163;SDS011;14685;50.618;7.024;2023-04-06T10:49:24;19.40;;;11.20;;
27163;SDS011;14685;50.618;7.024;2023-04-06T10:51:55;17.02;;;9.80;;
27163;SDS011;14685;50.618;7.024;2023-04-06T10:54:23;19.10;;;11.00;;
27163;SDS011;14685;50.618;7.024;2023-04-06T10:56:52;19.25;;;11.25;;
27163;SDS011;14685;50.618;7.024;2023-04-06T10:59:20;20.67;;;11.05;;
27163;SDS011;14685;50.618;7.024;2023-04-06T11:01:48;18.95;;;10.40;;
27163;SDS011;14685;50.618;7.024;2023-04-06T11:04:16;21.55;;;11.40;;
27163;SDS011;14685;50.618;7.024;2023-04-06T11:06:47;18.65;;;10.90;;
27163;SDS011;14685;50.618;7.024;2023-04-06T11:09:26;15.25;;;10.10;;
27163;SDS011;14685;50.618;7.024;2023-04-06T11:11:54;18.58;;;10.48;;
27163;SDS011;14685;50.618;7.024;2023-04-06T11:14:23;19.63;;;10.80;;
27163;SDS011;14685;50.618;7.024;2023-04-06T11:16:50;19.52;;;11.18;;
27163;SDS011;14685;50.618;7.024;2023-04-06T11:19:17;22.65;;;11.45;;
27163;SDS011;14685;50.618;7.024;2023-04-06T11:21:45;18.08;;;10.27;;
27163;SDS011;14685;50.618;7.024;2023-04-06T11:24:17;18.45;;;10.98;;
27163;SDS011;14685;50.618;7.024;2023-04-06T11:26:47;19.98;;;11.75;;
27163;SDS011;14685;50.618;7.024;2023-04-06T11:29:18;17.35;;;10.05;;
27163;SDS011;14685;50.618;7.024;2023-04-06T11:31:53;17.52;;;9.98;;
27163;SDS011;14685;50.618;7.024;2023-04-06T11:34:25;20.02;;;10.90;;
27163;SDS011;14685;50.618;7.024;2023-04-06T11:36:58;16.75;;;10.25;;
27163;SDS011;14685;50.618;7.024;2023-04-06T11:39:27;17.38;;;10.65;;
27163;SDS011;14685;50.618;7.024;2023-04-06T11:44:50;19.90;;;11.40;;
27163;SDS011;14685;50.618;7.024;2023-04-06T11:47:36;17.92;;;10.85;;
27163;SDS011;14685;50.618;7.024;2023-04-06T11:50:07;18.25;;;11.00;;
27163;SDS011;14685;50.618;7.024;2023-04-06T11:52:36;18.33;;;10.63;;
27163;SDS011;14685;50.618;7.024;2023-04-06T11:55:11;19.85;;;10.07;;
27163;SDS011;14685;50.618;7.024;2023-04-06T11:57:38;19.65;;;10.90;;
27163;SDS011;14685;50.618;7.024;2023-04-06T12:00:06;17.55;;;10.07;;
27163;SDS011;14685;50.618;7.024;2023-04-06T12:02:36;23.45;;;11.18;;
27163;SDS011;14685;50.618;7.024;2023-04-06T12:05:06;16.42;;;10.45;;
27163;SDS011;14685;50.618;7.024;2023-04-06T12:07:34;18.13;;;11.50;;
27163;SDS011;14685;50.618;7.024;2023-04-06T12:10:02;20.80;;;10.45;;
27163;SDS011;14685;50.618;7.024;2023-04-06T12:12:30;15.65;;;10.18;;
27163;SDS011;14685;50.618;7.024;2023-04-06T12:14:57;21.23;;;10.55;;
27163;SDS011;14685;50.618;7.024;2023-04-06T12:17:24;17.55;;;10.35;;
27163;SDS011;14685;50.618;7.024;2023-04-06T12:19:52;16.92;;;9.32;;
27163;SDS011;14685;50.618;7.024;2023-04-06T12:22:19;20.00;;;10.30;;
27163;SDS011;14685;50.618;7.024;2023-04-06T12:24:47;16.90;;;9.48;;
27163;SDS011;14685;50.618;7.024;2023-04-06T12:27:16;16.88;;;9.85;;
27163;SDS011;14685;50.618;7.024;2023-04-06T12:29:43;13.32;;;8.45;;
27163;SDS011;14685;50.618;7.024;2023-04-06T12:32:11;15.10;;;9.43;;
27163;SDS011;14685;50.618;7.024;2023-04-06T12:34:38;14.38;;;9.10;;
27163;SDS011;14685;50.618;7.024;2023-04-06T12:37:05;13.48;;;8.68;;
27163;SDS011;14685;50.618;7.024;2023-04-06T12:39:32;13.13;;;8.57;;
27163;SDS011;14685;50.618;7.024;2023-04-06T12:41:59;12.90;;;8.60;;
27163;SDS011;14685;50.618;7.024;2023-04-06T12:44:27;13.15;;;9.10;;
27163;SDS011;14685;50.618;7.024;2023-04-06T12:46:55;12.82;;;8.18;;
27163;SDS011;14685;50.618;7.024;2023-04-06T12:49:25;14.95;;;8.90;;
27163;SDS011;14685;50.618;7.024;2023-04-06T12:51:52;13.38;;;9.07;;
27163;SDS011;14685;50.618;7.024;2023-04-06T12:54:19;10.57;;;7.72;;
27163;SDS011;14685;50.618;7.024;2023-04-06T12:56:47;14.30;;;8.27;;
27163;SDS011;14685;50.618;7.024;2023-04-06T12:59:17;11.77;;;7.45;;
27163;SDS011;14685;50.618;7.024;2023-04-06T13:01:44;7.80;;;5.45;;
27163;SDS011;14685;50.618;7.024;2023-04-06T13:04:13;11.00;;;5.85;;
27163;SDS011;14685;50.618;7.024;2023-04-06T13:06:41;9.57;;;6.38;;
27163;SDS011;14685;50.618;7.024;2023-04-06T13:09:08;13.57;;;7.00;;
27163;SDS011;14685;50.618;7.024;2023-04-06T13:11:35;10.55;;;6.80;;
27163;SDS011;14685;50.618;7.024;2023-04-06T13:14:02;13.23;;;6.97;;
27163;SDS011;14685;50.618;7.024;2023-04-06T13:16:29;13.30;;;7.95;;
27163;SDS011;14685;50.618;7.024;2023-04-06T13:19:01;12.68;;;9.20;;
27163;SDS011;14685;50.618;7.024;2023-04-06T13:21:29;14.13;;;8.90;;
27163;SDS011;14685;50.618;7.024;2023-04-06T13:23:58;12.85;;;8.35;;
27163;SDS011;14685;50.618;7.024;2023-04-06T13:26:27;12.38;;;8.77;;
27163;SDS011;14685;50.618;7.024;2023-04-06T13:28:55;13.50;;;9.80;;
27163;SDS011;14685;50.618;7.024;2023-04-06T13:31:22;14.43;;;9.52;;
27163;SDS011;14685;50.618;7.024;2023-04-06T13:33:50;14.82;;;9.98;;
27163;SDS011;14685;50.618;7.024;2023-04-06T13:36:17;16.48;;;9.50;;
27163;SDS011;14685;50.618;7.024;2023-04-06T13:38:46;14.68;;;10.05;;
27163;SDS011;14685;50.618;7.024;2023-04-06T13:41:21;13.18;;;9.73;;
27163;SDS011;14685;50.618;7.024;2023-04-06T13:43:50;16.17;;;10.13;;
27163;SDS011;14685;50.618;7.024;2023-04-06T13:46:17;12.55;;;9.13;;
27163;SDS011;14685;50.618;7.024;2023-04-06T13:48:46;14.02;;;9.77;;
27163;SDS011;14685;50.618;7.024;2023-04-06T13:51:13;13.85;;;9.40;;
27163;SDS011;14685;50.618;7.024;2023-04-06T13:53:42;11.90;;;8.75;;
27163;SDS011;14685;50.618;7.024;2023-04-06T13:56:09;11.50;;;8.82;;
27163;SDS011;14685;50.618;7.024;2023-04-06T13:58:36;12.52;;;8.90;;
27163;SDS011;14685;50.618;7.024;2023-04-06T14:01:07;16.40;;;9.63;;
27163;SDS011;14685;50.618;7.024;2023-04-06T14:03:36;13.63;;;8.80;;
27163;SDS011;14685;50.618;7.024;2023-04-06T14:06:10;11.30;;;8.52;;
27163;SDS011;14685;50.618;7.024;2023-04-06T14:08:46;11.30;;;8.18;;
27163;SDS011;14685;50.618;7.024;2023-04-06T14:11:14;16.08;;;8.52;;
27163;SDS011;14685;50.618;7.024;2023-04-06T14:13:43;17.92;;;10.05;;
27163;SDS011;14685;50.618;7.024;2023-04-06T14:16:11;15.57;;;9.25;;
27163;SDS011;14685;50.618;7.024;2023-04-06T14:18:39;13.68;;;9.25;;
27163;SDS011;14685;50.618;7.024;2023-04-06T14:21:06;12.45;;;8.10;;
27163;SDS011;14685;50.618;7.024;2023-04-06T14:23:33;10.77;;;7.63;;
27163;SDS011;14685;50.618;7.024;2023-04-06T14:26:02;12.23;;;7.20;;
27163;SDS011;14685;50.618;7.024;2023-04-06T14:28:31;12.80;;;8.82;;
27163;SDS011;14685;50.618;7.024;2023-04-06T14:30:59;10.63;;;7.10;;
27163;SDS011;14685;50.618;7.024;2023-04-06T14:33:29;10.52;;;6.53;;
27163;SDS011;14685;50.618;7.024;2023-04-06T14:35:58;9.88;;;6.47;;
27163;SDS011;14685;50.618;7.024;2023-04-06T14:38:25;13.98;;;6.50;;
27163;SDS011;14685;50.618;7.024;2023-04-06T14:40:53;9.70;;;6.85;;
27163;SDS011;14685;50.618;7.024;2023-04-06T14:43:26;9.75;;;6.50;;
27163;SDS011;14685;50.618;7.024;2023-04-06T14:45:59;9.32;;;6.75;;
27163;SDS011;14685;50.618;7.024;2023-04-06T14:48:29;11.40;;;6.40;;